Time;durP1;ratioP1;P1;durP2;ratioP2;P2;SDS_P1;SDS_P2;PMS_P1;PMS_P2;Temp;Humidity;BMP_temperature;BMP_pressure;BME280_temperature;BME280_humidity;BME280_pressure;Samples;Min_cycle;Max_cycle;Signal;HPM_P1;HPM_P2
2021/08/17 00:00:18;;;;;;;;;;;;;;;12.20;100.00;96116.13;1036329;28;19913;-43
2021/08/17 00:00:48;;;;;;;;;;;;;;;12.22;100.00;96105.34;1036125;28;19905;-43
2021/08/17 00:01:19;;;;;;;;;;;;;;;12.22;100.00;96118.56;1036023;28;19968;-45
2021/08/17 00:01:49;;;;;;;;;;;;;;;12.19;100.00;96116.31;1040534;28;19934;-44
2021/08/17 00:02:19;;;;;;;;;;;;;;;12.19;100.00;96116.31;1040485;28;19905;-43
2021/08/17 00:02:50;;;;;;;;;;;;;;;12.16;100.00;96116.72;1040565;28;20382;-44
2021/08/17 00:03:20;;;;;;;;;;;;;;;12.18;100.00;96114.72;1040484;28;19938;-44
2021/08/17 00:03:50;;;;;;;;;;;;;;;12.17;100.00;96116.53;1040569;28;19924;-43
2021/08/17 00:04:20;;;;;;;;;;;;;;;12.15;100.00;96118.56;1040399;28;19911;-43
2021/08/17 00:04:51;;;;;;;;;;;;;;;12.13;100.00;96117.97;1040468;28;19905;-43
2021/08/17 00:05:21;;;;;;;;;;;;;;;12.17;100.00;96127.09;1040459;28;19913;-43
2021/08/17 00:05:51;;;;;;;;;;;;;;;12.22;100.00;96121.19;1040518;28;19905;-43
2021/08/17 00:06:22;;;;;;;;;;;;;;;12.28;100.00;96117.72;1035986;28;20277;-47
2021/08/17 00:06:52;;;;;;;;;;;;;;;12.26;100.00;96120.56;1032036;28;19913;-43
2021/08/17 00:07:22;;;;;;;;;;;;;;;12.31;100.00;96119.97;1031976;28;19910;-44
2021/08/17 00:07:53;;;;;;;;;;;;;;;12.30;100.00;96120.16;1032040;28;19968;-44
2021/08/17 00:08:23;;;;;;;;;;;;;;;12.30;100.00;96118.34;1032109;28;19913;-44
2021/08/17 00:08:53;;;;;;;;;;;;;;;12.26;100.00;96119.78;1032029;28;20307;-45
2021/08/17 00:09:23;;;;;;;;;;;;;;;12.29;100.00;96119.38;1036172;28;19905;-44
2021/08/17 00:09:54;;;;;;;;;;;;;;;12.27;100.00;96110.84;1036061;28;19914;-44
2021/08/17 00:10:24;;;;;;;;;;;;;;;12.22;100.00;96115.91;1031881;28;19906;-44
2021/08/17 00:10:54;;;;;;;;;;;;;;;12.24;100.00;96116.53;1036038;28;20294;-44
2021/08/17 00:11:25;;;;;;;;;;;;;;;12.25;100.00;96115.50;1036001;28;19914;-43
2021/08/17 00:11:55;;;;;;;;;;;;;;;12.26;100.00;96117.13;1036128;28;19973;-43
2021/08/17 00:12:25;;;;;;;;;;;;;;;12.28;100.00;96120.38;1040424;28;19920;-43
2021/08/17 00:12:56;;;;;;;;;;;;;;;12.29;100.00;96119.38;1036024;28;19924;-44
2021/08/17 00:13:26;;;;;;;;;;;;;;;12.29;100.00;96110.63;1036080;28;20042;-44
2021/08/17 00:13:56;;;;;;;;;;;;;;;12.29;100.00;96110.63;1036097;28;20402;-43
2021/08/17 00:14:27;;;;;;;;;;;;;;;12.28;100.00;96112.44;1035907;28;19921;-43
2021/08/17 00:14:57;;;;;;;;;;;;;;;12.22;100.00;96111.47;1040552;28;19921;-46
2021/08/17 00:15:27;;;;;;;;;;;;;;;12.21;100.00;96103.75;1040277;28;19917;-44
2021/08/17 00:15:58;;;;;;;;;;;;;;;12.23;100.00;96107.00;1040617;28;20274;-43
2021/08/17 00:16:28;;;;;;;;;;;;;;;12.23;100.00;96104.34;1041248;28;19920;-43
2021/08/17 00:16:58;;;;;;;;;;;;;;;12.24;100.00;96108.63;1041041;28;20413;-44
2021/08/17 00:17:28;;;;;;;;;;;;;;;12.22;100.00;96108.81;1040689;28;19921;-43
2021/08/17 00:17:59;;;;;;;;;;;;;;;12.29;100.00;96105.38;1040892;28;19974;-46
2021/08/17 00:18:29;;;;;;;;;;;;;;;12.32;100.00;96107.59;1041284;28;19913;-43
2021/08/17 00:18:59;;;;;;;;;;;;;;;12.32;100.00;96107.59;1040707;28;19913;-43
2021/08/17 00:19:30;;;;;;;;;;;;;;;12.34;100.00;96106.34;1040365;28;20356;-43
2021/08/17 00:20:00;;;;;;;;;;;;;;;12.29;100.00;96100.88;1035940;28;19987;-45
2021/08/17 00:20:30;;;;;;;;;;;;;;;12.25;100.00;96105.78;1036265;28;19924;-46
2021/08/17 00:21:07;;;;;;;;;;;;;;;12.22;100.00;96102.72;1036001;28;19988;-45
2021/08/17 00:21:37;;;;;;;;;;;;;;;12.30;100.00;96105.16;1036470;28;20005;-44
2021/08/17 00:22:08;;;;;;;;;;;;;;;12.24;100.00;96108.63;1040419;28;19913;-45
2021/08/17 00:22:38;;;;;;;;;;;;;;;12.14;100.00;96109.03;1040353;28;20366;-44
2021/08/17 00:23:08;;;;;;;;;;;;;;;12.12;100.00;96105.00;1040427;28;19909;-48
2021/08/17 00:23:39;;;;;;;;;;;;;;;12.13;100.00;96103.94;1040510;28;19913;-47
2021/08/17 00:24:09;;;;;;;;;;;;;;;12.08;100.00;96100.09;1036087;28;19945;-43
2021/08/17 00:24:39;;;;;;;;;;;;;;;12.20;100.00;96105.56;1036082;28;20362;-42
2021/08/17 00:25:10;;;;;;;;;;;;;;;12.34;100.00;96105.53;1036326;28;19922;-44
2021/08/17 00:25:42;;;;;;;;;;;;;;;12.30;100.00;96107.78;1036113;28;20006;-44
2021/08/17 00:26:13;;;;;;;;;;;;;;;12.25;100.00;96103.13;1035889;28;19919;-43
2021/08/17 00:26:43;;;;;;;;;;;;;;;12.21;100.00;96106.41;1036119;28;19964;-46
2021/08/17 00:27:13;;;;;;;;;;;;;;;12.24;100.00;96108.63;1036063;28;19914;-45
2021/08/17 00:27:44;;;;;;;;;;;;;;;12.21;100.00;96109.03;1036075;28;19922;-46
2021/08/17 00:28:14;;;;;;;;;;;;;;;12.18;100.00;96101.53;1040435;28;20419;-45
2021/08/17 00:28:44;;;;;;;;;;;;;;;12.20;100.00;96104.75;1040522;28;20011;-46
2021/08/17 00:29:15;;;;;;;;;;;;;;;12.18;100.00;96109.44;1040535;28;20293;-46
2021/08/17 00:29:47;;;;;;;;;;;;;;;12.17;100.00;96113.88;1041174;28;20362;-45
2021/08/17 00:30:17;;;;;;;;;;;;;;;12.19;100.00;96108.41;1041318;28;19959;-44
2021/08/17 00:30:47;;;;;;;;;;;;;;;12.22;100.00;96110.63;1041184;28;19909;-47
2021/08/17 00:31:18;;;;;;;;;;;;;;;12.15;100.00;96115.13;1041185;28;19952;-44
2021/08/17 00:31:48;;;;;;;;;;;;;;;12.16;100.00;96114.09;1041187;28;19911;-44
2021/08/17 00:32:18;;;;;;;;;;;;;;;12.19;100.00;96114.53;1041090;28;19909;-44
2021/08/17 00:32:48;;;;;;;;;;;;;;;12.19;100.00;96111.88;1041318;28;20397;-44
2021/08/17 00:33:19;;;;;;;;;;;;;;;12.17;100.00;96110.44;1041093;28;19910;-45
2021/08/17 00:33:49;;;;;;;;;;;;;;;12.19;100.00;96114.53;1041206;28;19905;-46
2021/08/17 00:34:19;;;;;;;;;;;;;;;12.24;100.00;96113.91;1040884;28;20361;-47
2021/08/17 00:34:50;;;;;;;;;;;;;;;12.27;100.00;96116.13;1036662;28;19953;-45
2021/08/17 00:35:23;;;;;;;;;;;;;;;12.29;100.00;96121.19;1036800;28;19905;-44
2021/08/17 00:35:53;;;;;;;;;;;;;;;12.29;100.00;96118.56;1036525;28;19905;-45
2021/08/17 00:36:23;;;;;;;;;;;;;;;12.25;100.00;96118.16;1036835;28;20359;-48
2021/08/17 00:36:54;;;;;;;;;;;;;;;12.17;100.00;96116.53;1037385;28;19912;-44
2021/08/17 00:37:24;;;;;;;;;;;;;;;12.22;100.00;96115.91;1036830;28;19923;-46
2021/08/17 00:37:54;;;;;;;;;;;;;;;12.17;100.00;96113.09;1037121;28;19951;-49
2021/08/17 00:38:25;;;;;;;;;;;;;;;12.15;100.00;96115.94;1037049;28;20394;-44
2021/08/17 00:38:55;;;;;;;;;;;;;;;12.12;100.00;96120.81;1036998;28;19905;-44
2021/08/17 00:39:26;;;;;;;;;;;;;;;12.12;100.00;96121.63;1037404;28;19991;-44
2021/08/17 00:39:56;;;;;;;;;;;;;;;12.18;100.00;96120.81;1037376;28;20009;-46
2021/08/17 00:40:27;;;;;;;;;;;;;;;12.18;100.00;96125.28;1037217;28;19989;-48
2021/08/17 00:40:57;;;;;;;;;;;;;;;12.17;100.00;96132.38;1037360;28;19933;-47
2021/08/17 00:41:28;;;;;;;;;;;;;;;12.24;100.00;96140.28;1032924;28;19906;-44
2021/08/17 00:41:58;;;;;;;;;;;;;;;12.16;100.00;96143.97;1033011;28;19902;-47
2021/08/17 00:42:32;;;;;;;;;;;;;;;12.17;100.00;96145.56;1033102;28;20004;-45
2021/08/17 00:43:02;;;;;;;;;;;;;;;12.14;100.00;96135.41;1033444;28;20255;-44
2021/08/17 00:43:33;;;;;;;;;;;;;;;12.08;100.00;96130.97;1033077;28;19913;-44
2021/08/17 00:44:04;;;;;;;;;;;;;;;12.02;100.00;96143.13;1033081;28;19993;-45
2021/08/17 00:44:35;;;;;;;;;;;;;;;12.00;100.00;96139.91;1032854;28;20317;-45
2021/08/17 00:45:05;;;;;;;;;;;;;;;11.96;100.00;96143.94;1033153;28;19914;-44
2021/08/17 00:45:35;;;;;;;;;;;;;;;11.99;100.00;96140.91;1037340;28;20043;-46
2021/08/17 00:46:06;;;;;;;;;;;;;;;11.93;100.00;96138.28;1032882;28;19902;-44
2021/08/17 00:46:36;;;;;;;;;;;;;;;11.97;100.00;96136.88;1032984;28;19913;-44
2021/08/17 00:47:07;;;;;;;;;;;;;;;11.84;100.00;96143.72;1033029;28;19906;-48
2021/08/17 00:47:37;;;;;;;;;;;;;;;11.73;100.00;96134.56;1033022;28;19906;-45
2021/08/17 00:48:07;;;;;;;;;;;;;;;11.65;100.00;96136.63;1037291;28;19909;-46
2021/08/17 00:48:38;;;;;;;;;;;;;;;11.53;100.00;96144.28;1037495;28;19905;-44
2021/08/17 00:49:08;;;;;;;;;;;;;;;11.53;100.00;96144.28;1037375;28;19960;-44
2021/08/17 00:49:38;;;;;;;;;;;;;;;11.53;100.00;96144.28;1037363;28;19918;-45
2021/08/17 00:50:09;;;;;;;;;;;;;;;11.53;100.00;96144.28;1037270;28;19996;-47
2021/08/17 00:50:39;;;;;;;;;;;;;;;11.50;100.00;96136.78;1037231;28;19936;-45
2021/08/17 00:51:09;;;;;;;;;;;;;;;11.63;100.00;96146.53;1037243;28;20347;-44
2021/08/17 00:51:39;;;;;;;;;;;;;;;11.62;100.00;96137.81;1037069;28;19921;-45
2021/08/17 00:52:10;;;;;;;;;;;;;;;11.58;100.00;96146.34;1037004;28;19956;-48
2021/08/17 00:52:41;;;;;;;;;;;;;;;11.58;100.00;96147.13;1037085;28;19921;-48
2021/08/17 00:53:11;;;;;;;;;;;;;;;11.53;100.00;96145.09;1036952;28;19933;-47
2021/08/17 00:53:41;;;;;;;;;;;;;;;11.49;100.00;96153.59;1037453;28;19913;-47
2021/08/17 00:54:12;;;;;;;;;;;;;;;11.49;100.00;96148.34;1037256;28;19917;-46
2021/08/17 00:54:43;;;;;;;;;;;;;;;11.56;100.00;96149.16;1037028;28;19914;-45
2021/08/17 00:55:13;;;;;;;;;;;;;;;11.65;100.00;96153.25;1037110;28;19916;-45
2021/08/17 00:55:43;;;;;;;;;;;;;;;11.64;100.00;96153.44;1036985;28;19914;-46
2021/08/17 00:56:14;;;;;;;;;;;;;;;11.63;100.00;96157.91;1036924;28;19948;-44
2021/08/17 00:56:44;;;;;;;;;;;;;;;11.53;100.00;96157.47;1032879;28;19961;-44
2021/08/17 00:57:15;;;;;;;;;;;;;;;11.48;100.00;96152.00;1033025;28;19932;-44
2021/08/17 00:57:45;;;;;;;;;;;;;;;11.53;100.00;96162.75;1037028;28;20378;-45
2021/08/17 00:58:15;;;;;;;;;;;;;;;11.54;100.00;96159.13;1037196;28;19913;-48
2021/08/17 00:58:45;;;;;;;;;;;;;;;11.79;100.00;96159.34;1037186;28;19913;-43
2021/08/17 00:59:16;;;;;;;;;;;;;;;11.75;100.00;96155.47;1037291;28;19913;-42
2021/08/17 00:59:46;;;;;;;;;;;;;;;11.72;100.00;96158.50;1037367;28;19918;-43
2021/08/17 01:00:16;;;;;;;;;;;;;;;11.65;100.00;96165.63;1037246;28;19917;-42
2021/08/17 01:00:48;;;;;;;;;;;;;;;11.59;100.00;96169.06;1037261;28;19967;-44
2021/08/17 01:01:18;;;;;;;;;;;;;;;11.58;100.00;96157.69;1032892;28;19914;-47
2021/08/17 01:01:49;;;;;;;;;;;;;;;11.54;100.00;96162.56;1032841;28;20193;-47
2021/08/17 01:02:20;;;;;;;;;;;;;;;11.53;100.00;96166.19;1032945;28;19914;-43
2021/08/17 01:02:50;;;;;;;;;;;;;;;11.64;100.00;96170.06;1033241;28;20376;-43
2021/08/17 01:03:20;;;;;;;;;;;;;;;11.81;100.00;96169.69;1037207;28;19917;-45
2021/08/17 01:03:51;;;;;;;;;;;;;;;11.82;100.00;96166.03;1037320;28;20381;-43
2021/08/17 01:04:21;;;;;;;;;;;;;;;11.69;100.00;96166.81;1036918;28;19965;-45
2021/08/17 01:04:52;;;;;;;;;;;;;;;11.65;100.00;96166.44;1037610;28;19913;-44
2021/08/17 01:05:23;;;;;;;;;;;;;;;11.59;100.00;96164.59;1037260;28;20434;-43
2021/08/17 01:05:54;;;;;;;;;;;;;;;11.63;100.00;96159.72;1037308;28;19920;-45
2021/08/17 01:06:25;;;;;;;;;;;;;;;11.58;100.00;96160.31;1036805;28;20339;-45
2021/08/17 01:06:56;;;;;;;;;;;;;;;11.56;100.00;96163.16;1037205;28;19916;-44
2021/08/17 01:07:27;;;;;;;;;;;;;;;11.59;100.00;96163.78;1036844;28;20335;-45
2021/08/17 01:07:57;;;;;;;;;;;;;;;11.66;100.00;96157.50;1032430;28;19930;-47
2021/08/17 01:08:28;;;;;;;;;;;;;;;11.70;100.00;96158.72;1028867;28;19978;-44
2021/08/17 01:08:58;;;;;;;;;;;;;;;11.63;100.00;96154.44;1028890;28;19914;-44
2021/08/17 01:09:28;;;;;;;;;;;;;;;11.62;100.00;96152.84;1028901;28;20368;-46
2021/08/17 01:09:59;;;;;;;;;;;;;;;11.60;100.00;96160.94;1032791;28;20008;-45
2021/08/17 01:10:29;;;;;;;;;;;;;;;11.65;100.00;96168.25;1032867;28;19914;-44
2021/08/17 01:10:59;;;;;;;;;;;;;;;11.64;100.00;96169.25;1032766;28;19918;-47
2021/08/17 01:11:29;;;;;;;;;;;;;;;11.63;100.00;96171.09;1028886;28;19917;-44
2021/08/17 01:12:00;;;;;;;;;;;;;;;11.63;100.00;96175.53;1032940;28;20329;-44
2021/08/17 01:12:30;;;;;;;;;;;;;;;11.61;100.00;96178.38;1032859;28;19945;-45
2021/08/17 01:13:00;;;;;;;;;;;;;;;11.63;100.00;96176.38;1032811;28;19905;-46
2021/08/17 01:13:31;;;;;;;;;;;;;;;11.61;100.00;96173.09;1037249;28;19958;-48
2021/08/17 01:14:01;;;;;;;;;;;;;;;11.69;100.00;96178.22;1037181;28;19913;-44
2021/08/17 01:14:32;;;;;;;;;;;;;;;11.52;100.00;96176.94;1037046;28;20373;-45
2021/08/17 01:15:02;;;;;;;;;;;;;;;11.54;100.00;96173.09;1037108;28;19910;-45
2021/08/17 01:15:33;;;;;;;;;;;;;;;11.67;100.00;96176.78;1037193;28;20051;-44
2021/08/17 01:16:03;;;;;;;;;;;;;;;11.74;100.00;96172.31;1037313;28;20409;-43
2021/08/17 01:16:34;;;;;;;;;;;;;;;11.73;100.00;96168.84;1037194;28;19909;-44
2021/08/17 01:17:04;;;;;;;;;;;;;;;11.73;100.00;96174.13;1037266;28;20350;-46
2021/08/17 01:17:34;;;;;;;;;;;;;;;11.74;100.00;96173.13;1037046;28;19920;-45
2021/08/17 01:18:07;;;;;;;;;;;;;;;11.76;100.00;96170.28;1037102;28;20003;-44
2021/08/17 01:18:37;;;;;;;;;;;;;;;11.83;100.00;96168.47;1037221;28;20000;-44
2021/08/17 01:19:08;;;;;;;;;;;;;;;11.64;100.00;96177.19;1037081;28;20354;-44
2021/08/17 01:19:38;;;;;;;;;;;;;;;11.58;100.00;96170.88;1037213;28;19921;-44
2021/08/17 01:20:11;;;;;;;;;;;;;;;11.57;100.00;96179.81;1037158;28;20248;-44
2021/08/17 01:20:41;;;;;;;;;;;;;;;11.50;100.00;96173.69;1037099;28;19915;-44
2021/08/17 01:21:12;;;;;;;;;;;;;;;11.45;100.00;96171.66;1036863;28;19917;-44
2021/08/17 01:21:42;;;;;;;;;;;;;;;11.43;100.00;96175.50;1036909;28;19917;-44
2021/08/17 01:22:12;;;;;;;;;;;;;;;11.44;100.00;96174.50;1032850;28;20351;-44
2021/08/17 01:22:43;;;;;;;;;;;;;;;11.43;100.00;96173.66;1028764;28;19911;-48
2021/08/17 01:23:13;;;;;;;;;;;;;;;11.38;100.00;96179.53;1028812;28;19910;-46
2021/08/17 01:23:44;;;;;;;;;;;;;;;11.39;100.00;96172.47;1024737;28;19911;-45
2021/08/17 01:24:15;;;;;;;;;;;;;;;11.39;100.00;96180.38;1028738;28;19914;-44
2021/08/17 01:24:46;;;;;;;;;;;;;;;11.37;100.00;96185.00;1032887;28;19913;-43
2021/08/17 01:25:16;;;;;;;;;;;;;;;11.38;100.00;96181.38;1029056;28;20012;-44
2021/08/17 01:25:46;;;;;;;;;;;;;;;11.40;100.00;96181.97;1032827;28;19977;-43
2021/08/17 01:26:17;;;;;;;;;;;;;;;11.41;100.00;96173.06;1032755;28;19964;-43
2021/08/17 01:26:47;;;;;;;;;;;;;;;11.47;100.00;96182.81;1032843;28;19910;-46
2021/08/17 01:27:17;;;;;;;;;;;;;;;11.49;100.00;96179.97;1037161;28;19906;-45
2021/08/17 01:27:47;;;;;;;;;;;;;;;11.35;100.00;96173.84;1037060;28;19910;-43
2021/08/17 01:28:18;;;;;;;;;;;;;;;11.38;100.00;96171.63;1037298;28;19910;-44
2021/08/17 01:28:49;;;;;;;;;;;;;;;11.38;100.00;96179.53;1028805;28;19916;-44
2021/08/17 01:29:21;;;;;;;;;;;;;;;11.39;100.00;96175.09;1028908;28;19913;-44
2021/08/17 01:29:51;;;;;;;;;;;;;;;11.40;100.00;96165.34;1028946;28;20015;-43
2021/08/17 01:30:21;;;;;;;;;;;;;;;11.44;100.00;96172.66;1029170;28;19910;-43
2021/08/17 01:31:01;;;;;;;;;;;;;;;11.43;100.00;96167.59;1037176;28;20363;-44
2021/08/17 01:31:32;;;;;;;;;;;;;;;11.37;100.00;96170.03;1037197;28;20000;-43
2021/08/17 01:32:02;;;;;;;;;;;;;;;11.35;100.00;96169.38;1032649;28;19920;-46
2021/08/17 01:32:32;;;;;;;;;;;;;;;11.39;100.00;96172.47;1032759;28;20259;-45
2021/08/17 01:33:02;;;;;;;;;;;;;;;11.42;100.00;96173.88;1032720;28;19914;-45
2021/08/17 01:33:33;;;;;;;;;;;;;;;11.48;100.00;96170.47;1032843;28;20423;-43
2021/08/17 01:34:03;;;;;;;;;;;;;;;11.45;100.00;96173.47;1037168;28;19913;-43
2021/08/17 01:34:34;;;;;;;;;;;;;;;11.45;100.00;96179.56;1036857;28;19981;-47
2021/08/17 01:35:04;;;;;;;;;;;;;;;11.47;100.00;96177.53;1037232;28;19913;-44
2021/08/17 01:35:35;;;;;;;;;;;;;;;11.49;100.00;96174.69;1037078;28;19996;-42
2021/08/17 01:36:05;;;;;;;;;;;;;;;11.57;100.00;96174.53;1032754;28;19920;-43
2021/08/17 01:36:35;;;;;;;;;;;;;;;11.41;100.00;96167.00;1032761;28;20394;-46
2021/08/17 01:37:06;;;;;;;;;;;;;;;11.49;100.00;96172.06;1032830;28;20017;-45
2021/08/17 01:37:36;;;;;;;;;;;;;;;11.45;100.00;96173.47;1032747;28;19913;-45
2021/08/17 01:38:06;;;;;;;;;;;;;;;11.39;100.00;96180.38;1037345;28;19906;-42
2021/08/17 01:38:49;;;;;;;;;;;;;;;11.35;100.00;96173.84;1037177;28;19921;-43
2021/08/17 01:39:19;;;;;;;;;;;;;;;11.35;100.00;96179.94;1037233;28;19977;-42
2021/08/17 01:39:59;;;;;;;;;;;;;;;11.38;100.00;96178.72;1032739;28;19925;-43
2021/08/17 01:40:29;;;;;;;;;;;;;;;11.40;100.00;96181.19;1028699;28;19914;-42
2021/08/17 01:40:59;;;;;;;;;;;;;;;11.33;100.00;96181.16;1028515;28;20391;-44
2021/08/17 01:41:30;;;;;;;;;;;;;;;11.36;100.00;96184.22;1029528;28;19920;-43
2021/08/17 01:42:00;;;;;;;;;;;;;;;11.31;100.00;96191.06;1032865;28;19970;-43
2021/08/17 01:42:30;;;;;;;;;;;;;;;11.29;100.00;96185.19;1037121;28;20031;-42
2021/08/17 01:43:00;;;;;;;;;;;;;;;11.28;100.00;96199.38;1036938;28;19921;-43
2021/08/17 01:43:31;;;;;;;;;;;;;;;11.25;100.00;96197.97;1037088;28;19913;-43
2021/08/17 01:44:13;;;;;;;;;;;;;;;11.23;100.00;96207.88;1037078;28;19909;-43
2021/08/17 01:44:44;;;;;;;;;;;;;;;11.10;100.00;96202.53;1037059;28;19992;-45
2021/08/17 01:45:14;;;;;;;;;;;;;;;11.16;100.00;96204.44;1037090;28;20345;-44
2021/08/17 01:45:51;;;;;;;;;;;;;;;11.11;100.00;96204.19;1037026;28;19914;-43
2021/08/17 01:46:22;;;;;;;;;;;;;;;11.11;100.00;96204.97;1037101;28;20000;-43
2021/08/17 01:46:52;;;;;;;;;;;;;;;11.13;100.00;96210.06;1037081;28;19913;-44
2021/08/17 01:47:22;;;;;;;;;;;;;;;11.06;100.00;96209.25;1036919;28;19910;-47
2021/08/17 01:47:53;;;;;;;;;;;;;;;11.11;100.00;96207.63;1037157;28;19929;-44
2021/08/17 01:48:24;;;;;;;;;;;;;;;11.20;100.00;96206.47;1037121;28;19913;-44
2021/08/17 01:48:54;;;;;;;;;;;;;;;11.23;100.00;96207.88;1037131;28;20274;-44
2021/08/17 01:49:24;;;;;;;;;;;;;;;11.22;100.00;96211.53;1037096;28;19913;-43
2021/08/17 01:49:54;;;;;;;;;;;;;;;11.23;100.00;96207.06;1037048;28;19952;-44
2021/08/17 01:50:25;;;;;;;;;;;;;;;11.11;100.00;96207.63;1036962;28;19914;-44
2021/08/17 01:50:55;;;;;;;;;;;;;;;11.15;100.00;96205.44;1032656;28;19910;-43
2021/08/17 01:51:25;;;;;;;;;;;;;;;11.17;100.00;96209.50;1032659;28;19913;-44
2021/08/17 01:51:56;;;;;;;;;;;;;;;11.16;100.00;96209.69;1032748;28;20339;-45
2021/08/17 01:52:26;;;;;;;;;;;;;;;11.15;100.00;96206.22;1028643;28;19929;-43
2021/08/17 01:52:57;;;;;;;;;;;;;;;11.11;100.00;96214.72;1024658;29;19969;-44
2021/08/17 01:53:27;;;;;;;;;;;;;;;11.09;100.00;96207.00;1020631;29;19914;-43
2021/08/17 01:53:58;;;;;;;;;;;;;;;11.09;100.00;96220.19;1020919;28;20025;-44
2021/08/17 01:54:28;;;;;;;;;;;;;;;11.12;100.00;96213.72;1028594;28;19914;-43
2021/08/17 01:54:59;;;;;;;;;;;;;;;11.10;100.00;96218.34;1032744;28;20310;-43
2021/08/17 01:55:29;;;;;;;;;;;;;;;11.06;100.00;96220.56;1036879;28;19921;-43
2021/08/17 01:56:09;;;;;;;;;;;;;;;11.22;100.00;96224.72;1032544;28;19920;-46
2021/08/17 01:56:39;;;;;;;;;;;;;;;11.14;100.00;96224.88;1032625;28;20009;-43
2021/08/17 01:57:09;;;;;;;;;;;;;;;11.08;100.00;96230.94;1032667;28;19914;-45
2021/08/17 01:57:40;;;;;;;;;;;;;;;11.11;100.00;96236.59;1033984;28;19913;-43
2021/08/17 01:58:10;;;;;;;;;;;;;;;11.13;100.00;96231.13;1037204;28;19914;-43
2021/08/17 01:58:40;;;;;;;;;;;;;;;11.15;100.00;96237.06;1037000;28;19963;-44
2021/08/17 01:59:13;;;;;;;;;;;;;;;11.08;100.00;96233.56;1037031;28;19914;-44
2021/08/17 01:59:43;;;;;;;;;;;;;;;11.04;100.00;96235.78;1037026;28;20390;-43
2021/08/17 02:00:14;;;;;;;;;;;;;;;11.06;100.00;96235.59;1037177;28;19914;-43
2021/08/17 02:00:44;;;;;;;;;;;;;;;11.04;100.00;96238.41;1032459;28;19914;-43
2021/08/17 02:01:15;;;;;;;;;;;;;;;11.28;100.00;96236.28;1032618;28;19914;-44
2021/08/17 02:01:45;;;;;;;;;;;;;;;11.39;100.00;96248.91;1032671;28;19914;-44
2021/08/17 02:02:15;;;;;;;;;;;;;;;11.30;100.00;96239.56;1032743;28;19941;-43
2021/08/17 02:02:46;;;;;;;;;;;;;;;11.33;100.00;96245.22;1037027;28;19993;-46
2021/08/17 02:03:16;;;;;;;;;;;;;;;11.35;100.00;96245.84;1037103;28;19910;-43
2021/08/17 02:03:46;;;;;;;;;;;;;;;11.33;100.00;96249.69;1037066;28;19917;-43
2021/08/17 02:04:17;;;;;;;;;;;;;;;11.35;100.00;96245.84;1036784;28;20377;-43
2021/08/17 02:04:47;;;;;;;;;;;;;;;11.38;100.00;96242.00;1036938;28;19914;-43
2021/08/17 02:05:20;;;;;;;;;;;;;;;11.44;100.00;96246.50;1036984;28;19910;-44
2021/08/17 02:05:51;;;;;;;;;;;;;;;11.31;100.00;96247.25;1032679;28;19965;-44
2021/08/17 02:06:21;;;;;;;;;;;;;;;11.30;100.00;96250.09;1032655;28;19957;-46
2021/08/17 02:06:51;;;;;;;;;;;;;;;11.32;100.00;96242.78;1032686;28;19943;-43
2021/08/17 02:07:22;;;;;;;;;;;;;;;11.33;100.00;96247.88;1032602;28;20016;-44
2021/08/17 02:07:53;;;;;;;;;;;;;;;11.40;100.00;96244.44;1037026;28;19914;-45
2021/08/17 02:08:24;;;;;;;;;;;;;;;11.49;100.00;96252.00;1036994;28;19910;-44
2021/08/17 02:08:54;;;;;;;;;;;;;;;11.36;100.00;96250.09;1036988;28;20002;-44
2021/08/17 02:09:24;;;;;;;;;;;;;;;11.31;100.00;96244.63;1037014;28;19920;-44
2021/08/17 02:09:55;;;;;;;;;;;;;;;11.37;100.00;96249.09;1037041;28;20004;-45
2021/08/17 02:10:25;;;;;;;;;;;;;;;11.39;100.00;96251.53;1036985;28;19913;-45
2021/08/17 02:10:56;;;;;;;;;;;;;;;11.36;100.00;96251.94;1036929;28;19945;-43
2021/08/17 02:11:26;;;;;;;;;;;;;;;11.37;100.00;96254.38;1036998;28;20317;-44
2021/08/17 02:11:56;;;;;;;;;;;;;;;11.29;100.00;96251.09;1036945;28;19909;-47
2021/08/17 02:12:26;;;;;;;;;;;;;;;11.33;100.00;96247.88;1037042;28;19942;-44
2021/08/17 02:12:57;;;;;;;;;;;;;;;11.31;100.00;96257.81;1036983;28;19913;-43
2021/08/17 02:13:29;;;;;;;;;;;;;;;11.37;100.00;96257.03;1032692;28;19905;-43
2021/08/17 02:13:59;;;;;;;;;;;;;;;11.35;100.00;96260.84;1032699;28;20024;-44
2021/08/17 02:14:29;;;;;;;;;;;;;;;11.31;100.00;96263.06;1032430;28;19956;-44
2021/08/17 02:14:59;;;;;;;;;;;;;;;11.31;100.00;96264.88;1032496;28;19916;-43
2021/08/17 02:15:30;;;;;;;;;;;;;;;11.29;100.00;96266.91;1032482;28;19924;-45
2021/08/17 02:16:00;;;;;;;;;;;;;;;11.25;100.00;96269.13;1032672;28;19913;-44
2021/08/17 02:16:31;;;;;;;;;;;;;;;11.25;100.00;96268.28;1032597;28;19921;-47
2021/08/17 02:17:01;;;;;;;;;;;;;;;11.26;100.00;96264.66;1032617;28;19938;-43
2021/08/17 02:17:31;;;;;;;;;;;;;;;11.21;100.00;96262.63;1032491;28;19914;-44
2021/08/17 02:18:02;;;;;;;;;;;;;;;11.20;100.00;96267.09;1032670;28;20298;-44
2021/08/17 02:18:33;;;;;;;;;;;;;;;11.28;100.00;96273.19;1032649;28;19913;-46
2021/08/17 02:19:03;;;;;;;;;;;;;;;11.28;100.00;96268.75;1036894;28;19913;-46
2021/08/17 02:19:33;;;;;;;;;;;;;;;11.33;100.00;96266.31;1037066;28;19953;-46
2021/08/17 02:20:04;;;;;;;;;;;;;;;11.29;100.00;96266.91;1037035;28;19914;-44
2021/08/17 02:20:34;;;;;;;;;;;;;;;11.29;100.00;96267.72;1036879;28;19964;-44
2021/08/17 02:21:05;;;;;;;;;;;;;;;11.28;100.00;96263.47;1037106;28;19917;-43
2021/08/17 02:21:35;;;;;;;;;;;;;;;11.22;100.00;96261.63;1036948;28;19976;-46
2021/08/17 02:22:06;;;;;;;;;;;;;;;11.23;100.00;96260.59;1036985;28;20286;-44
2021/08/17 02:22:36;;;;;;;;;;;;;;;11.25;100.00;96261.22;1037220;28;19920;-43
2021/08/17 02:23:06;;;;;;;;;;;;;;;11.30;100.00;96266.72;1037165;28;19914;-42
2021/08/17 02:23:38;;;;;;;;;;;;;;;11.24;100.00;96266.69;1037158;28;19989;-43
2021/08/17 02:24:09;;;;;;;;;;;;;;;11.26;100.00;96262.84;1037130;28;19917;-42
2021/08/17 02:24:40;;;;;;;;;;;;;;;11.15;100.00;96261.56;1037042;28;20263;-42
2021/08/17 02:25:10;;;;;;;;;;;;;;;11.17;100.00;96271.91;1037009;28;19910;-47
2021/08/17 02:25:41;;;;;;;;;;;;;;;11.12;100.00;96261.97;1037096;28;19960;-44
2021/08/17 02:26:11;;;;;;;;;;;;;;;11.13;100.00;96270.66;1037015;28;19960;-43
2021/08/17 02:26:41;;;;;;;;;;;;;;;11.20;100.00;96259.19;1037126;28;19914;-43
2021/08/17 02:27:12;;;;;;;;;;;;;;;11.23;100.00;96260.59;1036901;28;19936;-44
2021/08/17 02:27:42;;;;;;;;;;;;;;;11.22;100.00;96264.25;1037036;28;20401;-43
2021/08/17 02:28:12;;;;;;;;;;;;;;;11.25;100.00;96252.47;1037061;28;19914;-44
2021/08/17 02:28:42;;;;;;;;;;;;;;;11.16;100.00;96257.94;1037045;28;19909;-43
2021/08/17 02:29:13;;;;;;;;;;;;;;;11.37;100.00;96264.09;1037018;28;20377;-44
2021/08/17 02:29:43;;;;;;;;;;;;;;;11.33;100.00;96260.25;1037252;28;19913;-43
2021/08/17 02:30:13;;;;;;;;;;;;;;;11.30;100.00;96253.53;1036990;28;19913;-42
2021/08/17 02:30:44;;;;;;;;;;;;;;;11.28;100.00;96262.63;1037099;28;19964;-44
2021/08/17 02:31:14;;;;;;;;;;;;;;;11.20;100.00;96256.53;1037110;28;19924;-43
2021/08/17 02:31:44;;;;;;;;;;;;;;;11.18;100.00;96260.38;1037239;28;19957;-44
2021/08/17 02:32:14;;;;;;;;;;;;;;;11.13;100.00;96260.13;1037000;28;19968;-44
2021/08/17 02:32:45;;;;;;;;;;;;;;;11.11;100.00;96255.06;1037008;28;19924;-44
2021/08/17 02:33:15;;;;;;;;;;;;;;;11.14;100.00;96256.50;1036905;28;19931;-44
2021/08/17 02:33:45;;;;;;;;;;;;;;;11.07;100.00;96258.28;1036937;28;19917;-43
2021/08/17 02:34:16;;;;;;;;;;;;;;;11.05;100.00;96252.41;1036685;28;19914;-44
2021/08/17 02:34:46;;;;;;;;;;;;;;;10.95;100.00;96258.03;1036903;28;19910;-44
2021/08/17 02:35:16;;;;;;;;;;;;;;;10.96;100.00;96257.84;1036942;28;19913;-43
2021/08/17 02:35:46;;;;;;;;;;;;;;;10.99;100.00;96251.34;1036789;28;19921;-43
2021/08/17 02:36:17;;;;;;;;;;;;;;;11.04;100.00;96256.84;1036969;28;20255;-43
2021/08/17 02:36:47;;;;;;;;;;;;;;;10.99;100.00;96260.06;1036912;28;19937;-44
2021/08/17 02:37:17;;;;;;;;;;;;;;;11.01;100.00;96258.06;1036838;28;19913;-43